sensor_id;sensor_type;location;lat;lon;timestamp;pressure;altitude;pressure_sealevel;temperature;humidity
77572;BME280;67214;47.454;18.966;2024-02-14T00:01:19;100664.32;;;4.28;70.56
77572;BME280;67214;47.454;18.966;2024-02-14T00:03:46;100652.16;;;4.25;70.94
77572;BME280;67214;47.454;18.966;2024-02-14T00:06:13;100659.77;;;4.31;70.46
77572;BME280;67214;47.454;18.966;2024-02-14T00:08:40;100662.16;;;4.27;70.76
77572;BME280;67214;47.454;18.966;2024-02-14T00:11:06;100666.91;;;4.19;71.26
77572;BME280;67214;47.454;18.966;2024-02-14T00:13:33;100662.27;;;4.15;71.59
77572;BME280;67214;47.454;18.966;2024-02-14T00:16:01;100673.38;;;4.20;71.50
77572;BME280;67214;47.454;18.966;2024-02-14T00:18:28;100672.82;;;4.14;72.05
77572;BME280;67214;47.454;18.966;2024-02-14T00:20:55;100671.86;;;4.06;72.64
77572;BME280;67214;47.454;18.966;2024-02-14T00:23:21;100670.91;;;3.99;72.43
77572;BME280;67214;47.454;18.966;2024-02-14T00:25:48;100669.75;;;4.04;72.58
77572;BME280;67214;47.454;18.966;2024-02-14T00:28:15;100680.25;;;4.04;72.16
77572;BME280;67214;47.454;18.966;2024-02-14T00:30:41;100673.22;;;4.15;71.06
77572;BME280;67214;47.454;18.966;2024-02-14T00:33:08;100673.22;;;4.15;70.23
77572;BME280;67214;47.454;18.966;2024-02-14T00:35:35;100672.00;;;4.22;68.89
77572;BME280;67214;47.454;18.966;2024-02-14T00:38:02;100667.63;;;4.50;67.33
77572;BME280;67214;47.454;18.966;2024-02-14T00:40:28;100680.75;;;4.50;67.38
77572;BME280;67214;47.454;18.966;2024-02-14T00:42:55;100678.67;;;4.48;67.72
77572;BME280;67214;47.454;18.966;2024-02-14T00:45:22;100664.26;;;4.65;65.76
77572;BME280;67214;47.454;18.966;2024-02-14T00:47:49;100680.67;;;4.79;65.31
77572;BME280;67214;47.454;18.966;2024-02-14T00:50:16;100680.45;;;4.83;65.12
77572;BME280;67214;47.454;18.966;2024-02-14T00:52:42;100685.88;;;4.80;64.86
77572;BME280;67214;47.454;18.966;2024-02-14T00:55:09;100693.52;;;4.93;64.26
77572;BME280;67214;47.454;18.966;2024-02-14T00:57:36;100684.27;;;4.95;64.09
77572;BME280;67214;47.454;18.966;2024-02-14T01:00:04;100679.00;;;4.95;64.07
77572;BME280;67214;47.454;18.966;2024-02-14T01:02:32;100677.41;;;5.01;63.76
77572;BME280;67214;47.454;18.966;2024-02-14T01:04:58;100675.36;;;4.97;63.76
77572;BME280;67214;47.454;18.966;2024-02-14T01:07:25;100670.48;;;4.90;63.96
77572;BME280;67214;47.454;18.966;2024-02-14T01:09:52;100677.13;;;4.80;64.65
77572;BME280;67214;47.454;18.966;2024-02-14T01:12:19;100688.53;;;4.70;64.85
77572;BME280;67214;47.454;18.966;2024-02-14T01:14:45;100682.45;;;4.78;64.59
77572;BME280;67214;47.454;18.966;2024-02-14T01:17:12;100686.84;;;4.78;64.33
77572;BME280;67214;47.454;18.966;2024-02-14T01:19:39;100681.00;;;4.90;63.73
77572;BME280;67214;47.454;18.966;2024-02-14T01:22:05;100686.34;;;4.88;63.71
77572;BME280;67214;47.454;18.966;2024-02-14T01:24:34;100678.70;;;4.92;63.51
77572;BME280;67214;47.454;18.966;2024-02-14T01:27:00;100684.34;;;4.85;63.70
77572;BME280;67214;47.454;18.966;2024-02-14T01:29:28;100670.87;;;4.82;63.53
77572;BME280;67214;47.454;18.966;2024-02-14T01:31:55;100694.84;;;4.85;63.18
77572;BME280;67214;47.454;18.966;2024-02-14T01:34:22;100690.25;;;4.71;63.75
77572;BME280;67214;47.454;18.966;2024-02-14T01:36:49;100681.97;;;4.70;63.42
77572;BME280;67214;47.454;18.966;2024-02-14T01:39:16;100680.38;;;4.76;62.58
77572;BME280;67214;47.454;18.966;2024-02-14T01:41:46;100671.66;;;4.84;62.29
77572;BME280;67214;47.454;18.966;2024-02-14T01:44:14;100688.47;;;4.72;64.91
77572;BME280;67214;47.454;18.966;2024-02-14T01:46:41;100684.91;;;4.64;62.59
77572;BME280;67214;47.454;18.966;2024-02-14T01:49:09;100679.10;;;4.66;62.06
77572;BME280;67214;47.454;18.966;2024-02-14T01:51:37;100686.09;;;4.57;63.16
77572;BME280;67214;47.454;18.966;2024-02-14T01:54:05;100688.20;;;4.32;65.83
77572;BME280;67214;47.454;18.966;2024-02-14T01:56:32;100695.08;;;4.15;67.39
77572;BME280;67214;47.454;18.966;2024-02-14T01:58:59;100683.12;;;4.08;65.78
77572;BME280;67214;47.454;18.966;2024-02-14T02:01:27;100696.44;;;3.95;67.51
77572;BME280;67214;47.454;18.966;2024-02-14T02:03:53;100697.28;;;3.75;68.93
77572;BME280;67214;47.454;18.966;2024-02-14T02:06:20;100704.27;;;3.66;69.60
77572;BME280;67214;47.454;18.966;2024-02-14T02:08:47;100696.78;;;3.47;70.38
77572;BME280;67214;47.454;18.966;2024-02-14T02:11:14;100700.38;;;3.35;70.29
77572;BME280;67214;47.454;18.966;2024-02-14T02:13:40;100702.09;;;3.36;69.81
77572;BME280;67214;47.454;18.966;2024-02-14T02:16:07;100704.72;;;3.25;69.51
77572;BME280;67214;47.454;18.966;2024-02-14T02:18:34;100691.61;;;3.36;67.03
77572;BME280;67214;47.454;18.966;2024-02-14T02:21:00;100696.08;;;3.54;64.10
77572;BME280;67214;47.454;18.966;2024-02-14T02:23:29;100704.31;;;3.55;64.02
77572;BME280;67214;47.454;18.966;2024-02-14T02:25:56;100706.92;;;3.75;62.19
77572;BME280;67214;47.454;18.966;2024-02-14T02:28:23;100702.48;;;3.77;62.02
77572;BME280;67214;47.454;18.966;2024-02-14T02:30:50;100707.58;;;3.80;61.81
77572;BME280;67214;47.454;18.966;2024-02-14T02:33:18;100713.55;;;3.94;61.54
77572;BME280;67214;47.454;18.966;2024-02-14T02:35:45;100713.31;;;4.08;61.30
77572;BME280;67214;47.454;18.966;2024-02-14T02:38:11;100710.08;;;4.12;61.44
77572;BME280;67214;47.454;18.966;2024-02-14T02:40:38;100705.17;;;4.14;61.31
77572;BME280;67214;47.454;18.966;2024-02-14T02:43:05;100714.11;;;4.10;61.71
77572;BME280;67214;47.454;18.966;2024-02-14T02:45:32;100723.44;;;4.07;61.84
77572;BME280;67214;47.454;18.966;2024-02-14T02:47:59;100729.56;;;4.16;61.92
77572;BME280;67214;47.454;18.966;2024-02-14T02:50:28;100731.58;;;4.20;62.17
77572;BME280;67214;47.454;18.966;2024-02-14T02:52:55;100739.73;;;3.95;64.26
77572;BME280;67214;47.454;18.966;2024-02-14T02:55:22;100744.17;;;3.63;65.97
77572;BME280;67214;47.454;18.966;2024-02-14T02:57:49;100742.92;;;3.51;66.66
77572;BME280;67214;47.454;18.966;2024-02-14T03:00:18;100740.74;;;3.31;67.50
77572;BME280;67214;47.454;18.966;2024-02-14T03:02:46;100740.96;;;3.26;68.00
77572;BME280;67214;47.454;18.966;2024-02-14T03:05:14;100743.01;;;3.18;68.48
77572;BME280;67214;47.454;18.966;2024-02-14T03:07:44;100751.00;;;3.05;68.86
77572;BME280;67214;47.454;18.966;2024-02-14T03:10:12;100754.11;;;2.93;69.59
77572;BME280;67214;47.454;18.966;2024-02-14T03:12:39;100762.50;;;2.79;70.02
77572;BME280;67214;47.454;18.966;2024-02-14T03:15:06;100768.78;;;2.63;71.14
77572;BME280;67214;47.454;18.966;2024-02-14T03:17:35;100765.25;;;2.53;71.99
77572;BME280;67214;47.454;18.966;2024-02-14T03:20:01;100769.83;;;2.48;71.62
77572;BME280;67214;47.454;18.966;2024-02-14T03:22:30;100771.30;;;2.43;71.47
77572;BME280;67214;47.454;18.966;2024-02-14T03:24:56;100776.70;;;2.39;71.85
77572;BME280;67214;47.454;18.966;2024-02-14T03:27:23;100779.53;;;2.32;71.81
77572;BME280;67214;47.454;18.966;2024-02-14T03:29:52;100780.18;;;2.27;72.25
77572;BME280;67214;47.454;18.966;2024-02-14T03:32:20;100775.28;;;2.30;72.16
77572;BME280;67214;47.454;18.966;2024-02-14T03:34:49;100781.36;;;2.19;72.75
77572;BME280;67214;47.454;18.966;2024-02-14T03:37:15;100784.47;;;2.05;73.30
77572;BME280;67214;47.454;18.966;2024-02-14T03:39:43;100791.03;;;1.92;73.96
77572;BME280;67214;47.454;18.966;2024-02-14T03:42:11;100803.14;;;1.83;74.57
77572;BME280;67214;47.454;18.966;2024-02-14T03:44:38;100794.23;;;1.75;75.04
77572;BME280;67214;47.454;18.966;2024-02-14T03:47:06;100797.52;;;1.69;75.70
77572;BME280;67214;47.454;18.966;2024-02-14T03:49:33;100808.64;;;1.62;76.23
77572;BME280;67214;47.454;18.966;2024-02-14T03:52:00;100809.69;;;1.57;76.51
77572;BME280;67214;47.454;18.966;2024-02-14T03:54:27;100809.73;;;1.55;76.46
77572;BME280;67214;47.454;18.966;2024-02-14T03:56:53;100815.02;;;1.92;75.64
77572;BME280;67214;47.454;18.966;2024-02-14T03:59:21;100823.70;;;2.05;74.83
77572;BME280;67214;47.454;18.966;2024-02-14T04:01:50;100808.47;;;2.16;74.30
77572;BME280;67214;47.454;18.966;2024-02-14T04:04:18;100823.31;;;2.64;73.22
77572;BME280;67214;47.454;18.966;2024-02-14T04:06:46;100816.16;;;2.91;71.76
77572;BME280;67214;47.454;18.966;2024-02-14T04:09:13;100806.60;;;3.01;71.57
77572;BME280;67214;47.454;18.966;2024-02-14T04:11:40;100815.19;;;3.05;71.24
77572;BME280;67214;47.454;18.966;2024-02-14T04:14:06;100809.03;;;2.94;71.37
77572;BME280;67214;47.454;18.966;2024-02-14T04:16:33;100825.01;;;2.88;71.62
77572;BME280;67214;47.454;18.966;2024-02-14T04:19:02;100830.55;;;2.80;72.00
77572;BME280;67214;47.454;18.966;2024-02-14T04:21:29;100836.98;;;2.60;72.93
77572;BME280;67214;47.454;18.966;2024-02-14T04:23:58;100847.25;;;2.42;73.79
77572;BME280;67214;47.454;18.966;2024-02-14T04:26:25;100852.03;;;2.42;74.34
77572;BME280;67214;47.454;18.966;2024-02-14T04:28:52;100848.48;;;2.56;73.24
77572;BME280;67214;47.454;18.966;2024-02-14T04:31:19;100854.54;;;2.57;73.45
77572;BME280;67214;47.454;18.966;2024-02-14T04:33:45;100854.05;;;2.59;73.76
77572;BME280;67214;47.454;18.966;2024-02-14T04:36:17;100844.67;;;2.65;73.72
77572;BME280;67214;47.454;18.966;2024-02-14T04:38:46;100856.95;;;2.63;73.66
77572;BME280;67214;47.454;18.966;2024-02-14T04:41:14;100851.27;;;2.63;73.48
77572;BME280;67214;47.454;18.966;2024-02-14T04:43:40;100857.52;;;2.59;73.83
77572;BME280;67214;47.454;18.966;2024-02-14T04:46:07;100859.73;;;2.47;74.61
77572;BME280;67214;47.454;18.966;2024-02-14T04:48:34;100867.73;;;2.30;75.35
77572;BME280;67214;47.454;18.966;2024-02-14T04:51:02;100862.67;;;2.13;75.89
77572;BME280;67214;47.454;18.966;2024-02-14T04:53:30;100868.48;;;1.96;76.38
77572;BME280;67214;47.454;18.966;2024-02-14T04:55:57;100864.67;;;1.80;77.17
77572;BME280;67214;47.454;18.966;2024-02-14T04:58:24;100874.30;;;1.66;78.17
77572;BME280;67214;47.454;18.966;2024-02-14T05:00:52;100866.74;;;1.57;78.29
77572;BME280;67214;47.454;18.966;2024-02-14T05:03:20;100870.20;;;1.45;78.83
77572;BME280;67214;47.454;18.966;2024-02-14T05:05:49;100880.55;;;1.34;79.38
77572;BME280;67214;47.454;18.966;2024-02-14T05:08:16;100879.69;;;1.34;79.30
77572;BME280;67214;47.454;18.966;2024-02-14T05:10:42;100886.54;;;1.23;79.46
77572;BME280;67214;47.454;18.966;2024-02-14T05:13:09;100892.96;;;1.13;80.06
77572;BME280;67214;47.454;18.966;2024-02-14T05:15:36;100892.78;;;1.05;80.44
77572;BME280;67214;47.454;18.966;2024-02-14T05:18:03;100887.28;;;0.99;80.93
77572;BME280;67214;47.454;18.966;2024-02-14T05:20:31;100886.72;;;0.89;81.54
77572;BME280;67214;47.454;18.966;2024-02-14T05:22:58;100887.73;;;0.84;81.65
77572;BME280;67214;47.454;18.966;2024-02-14T05:25:25;100892.80;;;0.74;81.59
77572;BME280;67214;47.454;18.966;2024-02-14T05:27:53;100904.20;;;0.71;82.32
77572;BME280;67214;47.454;18.966;2024-02-14T05:30:20;100905.50;;;0.71;82.81
77572;BME280;67214;47.454;18.966;2024-02-14T05:32:47;100910.38;;;0.69;83.24
77572;BME280;67214;47.454;18.966;2024-02-14T05:35:13;100912.70;;;0.78;83.16
77572;BME280;67214;47.454;18.966;2024-02-14T05:37:40;100912.89;;;0.72;82.88
77572;BME280;67214;47.454;18.966;2024-02-14T05:40:07;100913.58;;;0.62;83.04
77572;BME280;67214;47.454;18.966;2024-02-14T05:42:34;100908.23;;;0.52;83.31
77572;BME280;67214;47.454;18.966;2024-02-14T05:45:00;100914.58;;;0.42;83.64
77572;BME280;67214;47.454;18.966;2024-02-14T05:47:29;100909.48;;;0.37;84.04
77572;BME280;67214;47.454;18.966;2024-02-14T05:49:55;100903.08;;;0.33;84.37
77572;BME280;67214;47.454;18.966;2024-02-14T05:52:22;100924.01;;;0.31;84.74
77572;BME280;67214;47.454;18.966;2024-02-14T05:54:49;100929.25;;;0.30;84.84
77572;BME280;67214;47.454;18.966;2024-02-14T05:57:15;100937.52;;;0.29;85.04
77572;BME280;67214;47.454;18.966;2024-02-14T05:59:42;100934.20;;;0.24;85.33
77572;BME280;67214;47.454;18.966;2024-02-14T06:02:09;100942.85;;;0.25;85.12
77572;BME280;67214;47.454;18.966;2024-02-14T06:04:36;100937.31;;;0.21;85.31
77572;BME280;67214;47.454;18.966;2024-02-14T06:07:03;100942.16;;;0.18;85.45
77572;BME280;67214;47.454;18.966;2024-02-14T06:09:31;100944.44;;;0.14;85.61
77572;BME280;67214;47.454;18.966;2024-02-14T06:11:58;100944.09;;;0.12;86.21
77572;BME280;67214;47.454;18.966;2024-02-14T06:14:24;100949.69;;;0.13;86.24
77572;BME280;67214;47.454;18.966;2024-02-14T06:16:51;100961.50;;;0.10;86.13
77572;BME280;67214;47.454;18.966;2024-02-14T06:19:18;100959.67;;;0.13;86.17
77572;BME280;67214;47.454;18.966;2024-02-14T06:21:45;100958.45;;;0.10;86.29
77572;BME280;67214;47.454;18.966;2024-02-14T06:24:11;100956.38;;;0.07;86.92
77572;BME280;67214;47.454;18.966;2024-02-14T06:26:39;100958.89;;;0.10;86.87
77572;BME280;67214;47.454;18.966;2024-02-14T06:29:05;100960.51;;;0.15;87.17
77572;BME280;67214;47.454;18.966;2024-02-14T06:31:32;100961.28;;;0.19;87.13
77572;BME280;67214;47.454;18.966;2024-02-14T06:33:59;100955.63;;;0.19;86.92
77572;BME280;67214;47.454;18.966;2024-02-14T06:36:26;100968.22;;;0.20;86.75
77572;BME280;67214;47.454;18.966;2024-02-14T06:38:52;100969.00;;;0.23;86.71
77572;BME280;67214;47.454;18.966;2024-02-14T06:41:19;100967.08;;;0.30;86.92
77572;BME280;67214;47.454;18.966;2024-02-14T06:43:46;100969.16;;;0.33;86.56
77572;BME280;67214;47.454;18.966;2024-02-14T06:46:12;100971.11;;;0.41;86.91
77572;BME280;67214;47.454;18.966;2024-02-14T06:48:39;100974.27;;;0.54;86.96
77572;BME280;67214;47.454;18.966;2024-02-14T06:51:06;100968.66;;;0.69;86.58
77572;BME280;67214;47.454;18.966;2024-02-14T06:53:33;100973.77;;;0.88;85.80
77572;BME280;67214;47.454;18.966;2024-02-14T06:56:01;100973.10;;;0.97;85.54
77572;BME280;67214;47.454;18.966;2024-02-14T06:58:28;100982.95;;;1.18;84.27
77572;BME280;67214;47.454;18.966;2024-02-14T07:00:55;100986.58;;;1.27;83.70
77572;BME280;67214;47.454;18.966;2024-02-14T07:03:22;100987.17;;;1.36;83.31
77572;BME280;67214;47.454;18.966;2024-02-14T07:05:49;100989.86;;;1.48;82.81
77572;BME280;67214;47.454;18.966;2024-02-14T07:08:16;100993.86;;;1.60;82.04
77572;BME280;67214;47.454;18.966;2024-02-14T07:10:43;100996.75;;;1.65;81.95
77572;BME280;67214;47.454;18.966;2024-02-14T07:13:10;100999.88;;;1.76;81.61
77572;BME280;67214;47.454;18.966;2024-02-14T07:15:37;100998.93;;;2.07;80.22
77572;BME280;67214;47.454;18.966;2024-02-14T07:18:03;101000.09;;;2.11;80.16
77572;BME280;67214;47.454;18.966;2024-02-14T07:20:31;100997.64;;;2.20;80.25
77572;BME280;67214;47.454;18.966;2024-02-14T07:22:57;100998.31;;;2.38;79.58
77572;BME280;67214;47.454;18.966;2024-02-14T07:25:24;100983.84;;;2.53;78.67
77572;BME280;67214;47.454;18.966;2024-02-14T07:27:51;100991.68;;;2.66;78.57
77572;BME280;67214;47.454;18.966;2024-02-14T07:30:18;100983.02;;;2.77;78.41
77572;BME280;67214;47.454;18.966;2024-02-14T07:32:44;100984.80;;;2.88;78.50
77572;BME280;67214;47.454;18.966;2024-02-14T07:35:12;100981.57;;;3.05;78.29
77572;BME280;67214;47.454;18.966;2024-02-14T07:37:42;100987.55;;;3.20;77.71
77572;BME280;67214;47.454;18.966;2024-02-14T07:40:09;100988.27;;;3.47;77.08
77572;BME280;67214;47.454;18.966;2024-02-14T07:42:37;100994.41;;;3.69;76.09
77572;BME280;67214;47.454;18.966;2024-02-14T07:45:04;100994.16;;;3.87;75.79
77572;BME280;67214;47.454;18.966;2024-02-14T07:47:31;100995.12;;;4.06;75.47
77572;BME280;67214;47.454;18.966;2024-02-14T07:49:57;100981.63;;;4.25;74.84
77572;BME280;67214;47.454;18.966;2024-02-14T07:52:24;100993.06;;;4.44;74.07
77572;BME280;67214;47.454;18.966;2024-02-14T07:54:52;100990.92;;;4.54;73.75
77572;BME280;67214;47.454;18.966;2024-02-14T07:57:20;100993.02;;;4.66;73.14
77572;BME280;67214;47.454;18.966;2024-02-14T07:59:46;100986.45;;;4.86;72.60
77572;BME280;67214;47.454;18.966;2024-02-14T08:02:13;100982.56;;;4.95;71.70
77572;BME280;67214;47.454;18.966;2024-02-14T08:04:40;100996.02;;;5.07;71.43
77572;BME280;67214;47.454;18.966;2024-02-14T08:07:07;100997.70;;;5.19;71.67
77572;BME280;67214;47.454;18.966;2024-02-14T08:09:33;101002.76;;;5.23;70.18
77572;BME280;67214;47.454;18.966;2024-02-14T08:12:00;100998.09;;;5.30;69.90
77572;BME280;67214;47.454;18.966;2024-02-14T08:14:27;101002.75;;;5.33;69.70
77572;BME280;67214;47.454;18.966;2024-02-14T08:16:54;101000.42;;;5.46;68.35
77572;BME280;67214;47.454;18.966;2024-02-14T08:19:21;101006.58;;;5.63;68.18
77572;BME280;67214;47.454;18.966;2024-02-14T08:21:47;100995.02;;;5.76;66.53
77572;BME280;67214;47.454;18.966;2024-02-14T08:24:14;101000.38;;;5.83;65.60
77572;BME280;67214;47.454;18.966;2024-02-14T08:26:41;101001.33;;;5.82;64.36
77572;BME280;67214;47.454;18.966;2024-02-14T08:29:09;101004.33;;;5.83;64.28
77572;BME280;67214;47.454;18.966;2024-02-14T08:31:37;101004.14;;;5.88;63.40
77572;BME280;67214;47.454;18.966;2024-02-14T08:34:04;100991.89;;;6.05;62.80
77572;BME280;67214;47.454;18.966;2024-02-14T08:36:30;101010.73;;;6.15;61.90
77572;BME280;67214;47.454;18.966;2024-02-14T08:38:57;101007.31;;;6.13;61.53
77572;BME280;67214;47.454;18.966;2024-02-14T08:41:24;101008.01;;;6.17;61.86
77572;BME280;67214;47.454;18.966;2024-02-14T08:43:51;101003.55;;;6.27;61.86
77572;BME280;67214;47.454;18.966;2024-02-14T08:46:17;100998.73;;;6.44;62.49
77572;BME280;67214;47.454;18.966;2024-02-14T08:48:44;101004.96;;;6.43;62.32
77572;BME280;67214;47.454;18.966;2024-02-14T08:51:15;101003.03;;;6.55;62.80
77572;BME280;67214;47.454;18.966;2024-02-14T08:53:42;101004.34;;;6.55;61.51
77572;BME280;67214;47.454;18.966;2024-02-14T08:56:09;101002.34;;;6.60;61.43
77572;BME280;67214;47.454;18.966;2024-02-14T08:58:36;100997.77;;;6.64;60.78
77572;BME280;67214;47.454;18.966;2024-02-14T09:01:03;100990.15;;;6.66;60.51
77572;BME280;67214;47.454;18.966;2024-02-14T09:03:30;100989.45;;;6.88;60.24
77572;BME280;67214;47.454;18.966;2024-02-14T09:05:57;100988.03;;;6.81;60.41
77572;BME280;67214;47.454;18.966;2024-02-14T09:08:24;100987.55;;;6.99;60.57
77572;BME280;67214;47.454;18.966;2024-02-14T09:10:50;100991.11;;;7.07;60.68
77572;BME280;67214;47.454;18.966;2024-02-14T09:13:17;100991.94;;;7.16;60.00
77572;BME280;67214;47.454;18.966;2024-02-14T09:15:44;100991.53;;;7.23;60.11
77572;BME280;67214;47.454;18.966;2024-02-14T09:18:11;100992.44;;;7.31;59.51
77572;BME280;67214;47.454;18.966;2024-02-14T09:20:37;100989.60;;;7.42;58.63
77572;BME280;67214;47.454;18.966;2024-02-14T09:23:04;100986.30;;;7.30;58.80
77572;BME280;67214;47.454;18.966;2024-02-14T09:25:31;100991.21;;;7.54;58.44
77572;BME280;67214;47.454;18.966;2024-02-14T09:27:58;100991.32;;;7.75;58.62
77572;BME280;67214;47.454;18.966;2024-02-14T09:30:25;100991.14;;;7.86;57.03
77572;BME280;67214;47.454;18.966;2024-02-14T09:32:51;100984.19;;;7.77;56.69
77572;BME280;67214;47.454;18.966;2024-02-14T09:35:18;100995.00;;;7.72;57.53
77572;BME280;67214;47.454;18.966;2024-02-14T09:37:45;100985.94;;;7.69;57.72
77572;BME280;67214;47.454;18.966;2024-02-14T09:40:12;100985.45;;;8.01;57.76
77572;BME280;67214;47.454;18.966;2024-02-14T09:42:42;100989.22;;;7.81;57.30
77572;BME280;67214;47.454;18.966;2024-02-14T09:45:07;100993.86;;;7.69;57.32
77572;BME280;67214;47.454;18.966;2024-02-14T09:47:34;100975.86;;;7.91;56.51
77572;BME280;67214;47.454;18.966;2024-02-14T09:50:01;100983.61;;;8.10;56.89
77572;BME280;67214;47.454;18.966;2024-02-14T09:52:34;100979.33;;;8.08;54.03
77572;BME280;67214;47.454;18.966;2024-02-14T09:55:02;100972.67;;;8.32;54.14
77572;BME280;67214;47.454;18.966;2024-02-14T09:57:30;100967.43;;;8.39;54.44
77572;BME280;67214;47.454;18.966;2024-02-14T09:59:58;100973.14;;;8.16;54.64
77572;BME280;67214;47.454;18.966;2024-02-14T10:02:29;100975.51;;;8.59;54.47
77572;BME280;67214;47.454;18.966;2024-02-14T10:04:56;100969.90;;;8.49;53.09
77572;BME280;67214;47.454;18.966;2024-02-14T10:07:23;100978.35;;;8.70;53.38
77572;BME280;67214;47.454;18.966;2024-02-14T10:09:50;100960.42;;;8.75;52.65
77572;BME280;67214;47.454;18.966;2024-02-14T10:12:17;100970.89;;;8.76;53.47
77572;BME280;67214;47.454;18.966;2024-02-14T10:14:44;100965.52;;;8.78;51.60
77572;BME280;67214;47.454;18.966;2024-02-14T10:17:18;100967.03;;;8.75;51.19
77572;BME280;67214;47.454;18.966;2024-02-14T10:19:54;100965.64;;;8.83;50.71
77572;BME280;67214;47.454;18.966;2024-02-14T10:22:14;100969.82;;;8.51;51.04
77572;BME280;67214;47.454;18.966;2024-02-14T10:24:41;100969.57;;;8.76;51.88
77572;BME280;67214;47.454;18.966;2024-02-14T10:27:10;100966.57;;;8.75;52.87
77572;BME280;67214;47.454;18.966;2024-02-14T10:29:36;100972.83;;;9.03;53.11
77572;BME280;67214;47.454;18.966;2024-02-14T10:32:03;100967.89;;;8.82;52.79
77572;BME280;67214;47.454;18.966;2024-02-14T10:34:30;100962.14;;;8.83;53.27
77572;BME280;67214;47.454;18.966;2024-02-14T10:36:58;100958.91;;;8.64;52.93
77572;BME280;67214;47.454;18.966;2024-02-14T10:39:26;100960.27;;;8.99;52.54
77572;BME280;67214;47.454;18.966;2024-02-14T10:41:52;100959.79;;;9.07;51.33
77572;BME280;67214;47.454;18.966;2024-02-14T10:44:19;100960.25;;;9.06;51.42
77572;BME280;67214;47.454;18.966;2024-02-14T10:46:46;100952.80;;;8.99;51.33
77572;BME280;67214;47.454;18.966;2024-02-14T10:49:15;100953.73;;;9.40;51.81
77572;BME280;67214;47.454;18.966;2024-02-14T10:51:42;100941.09;;;9.58;50.35
77572;BME280;67214;47.454;18.966;2024-02-14T10:54:11;100954.05;;;9.62;50.65
77572;BME280;67214;47.454;18.966;2024-02-14T10:56:40;100946.28;;;9.66;51.25
77572;BME280;67214;47.454;18.966;2024-02-14T10:59:09;100944.70;;;9.64;50.03
77572;BME280;67214;47.454;18.966;2024-02-14T11:01:37;100945.78;;;9.40;50.53
77572;BME280;67214;47.454;18.966;2024-02-14T11:04:04;100944.05;;;9.46;50.30
77572;BME280;67214;47.454;18.966;2024-02-14T11:06:31;100945.14;;;9.70;51.34
77572;BME280;67214;47.454;18.966;2024-02-14T11:09:02;100938.45;;;9.65;50.50
77572;BME280;67214;47.454;18.966;2024-02-14T11:11:31;100929.88;;;9.47;50.71
77572;BME280;67214;47.454;18.966;2024-02-14T11:13:58;100939.78;;;9.65;50.72
77572;BME280;67214;47.454;18.966;2024-02-14T11:16:25;100938.93;;;9.64;50.76
77572;BME280;67214;47.454;18.966;2024-02-14T11:19:11;100928.53;;;9.54;51.97
77572;BME280;67214;47.454;18.966;2024-02-14T11:21:47;100935.31;;;9.72;51.19
77572;BME280;67214;47.454;18.966;2024-02-14T11:24:15;100929.25;;;9.70;52.08
77572;BME280;67214;47.454;18.966;2024-02-14T11:26:51;100928.30;;;9.71;52.21
77572;BME280;67214;47.454;18.966;2024-02-14T11:29:18;100921.74;;;9.84;51.37
77572;BME280;67214;47.454;18.966;2024-02-14T11:31:45;100905.59;;;10.01;51.47
77572;BME280;67214;47.454;18.966;2024-02-14T11:34:14;100917.00;;;10.16;51.15
77572;BME280;67214;47.454;18.966;2024-02-14T11:36:41;100903.05;;;10.52;51.28
77572;BME280;67214;47.454;18.966;2024-02-14T11:39:08;100908.18;;;10.22;50.84
77572;BME280;67214;47.454;18.966;2024-02-14T11:41:35;100911.70;;;10.09;51.42
77572;BME280;67214;47.454;18.966;2024-02-14T11:44:03;100900.04;;;10.11;51.47
77572;BME280;67214;47.454;18.966;2024-02-14T11:46:31;100889.45;;;10.18;51.85
77572;BME280;67214;47.454;18.966;2024-02-14T11:49:02;100891.65;;;10.44;51.21
77572;BME280;67214;47.454;18.966;2024-02-14T11:51:31;100890.24;;;10.84;50.38
77572;BME280;67214;47.454;18.966;2024-02-14T11:53:58;100874.53;;;11.30;47.82
77572;BME280;67214;47.454;18.966;2024-02-14T11:56:32;100888.41;;;10.84;49.03
77572;BME280;67214;47.454;18.966;2024-02-14T11:59:00;100872.77;;;11.17;47.32
77572;BME280;67214;47.454;18.966;2024-02-14T12:01:31;100882.06;;;10.87;46.81
77572;BME280;67214;47.454;18.966;2024-02-14T12:03:59;100887.75;;;10.75;47.79
77572;BME280;67214;47.454;18.966;2024-02-14T12:06:32;100877.14;;;10.75;46.92
77572;BME280;67214;47.454;18.966;2024-02-14T12:08:57;100877.20;;;11.11;46.64
77572;BME280;67214;47.454;18.966;2024-02-14T12:11:29;100886.98;;;10.86;45.15
77572;BME280;67214;47.454;18.966;2024-02-14T12:13:56;100890.23;;;10.46;43.76
77572;BME280;67214;47.454;18.966;2024-02-14T12:16:22;100882.00;;;10.68;44.45
77572;BME280;67214;47.454;18.966;2024-02-14T12:18:49;100883.77;;;10.75;43.46
77572;BME280;67214;47.454;18.966;2024-02-14T12:21:16;100878.69;;;10.59;43.09
77572;BME280;67214;47.454;18.966;2024-02-14T12:23:42;100884.16;;;10.44;43.59
77572;BME280;67214;47.454;18.966;2024-02-14T12:26:10;100882.67;;;10.40;43.53
77572;BME280;67214;47.454;18.966;2024-02-14T12:28:38;100879.55;;;10.40;44.91
77572;BME280;67214;47.454;18.966;2024-02-14T12:31:05;100881.50;;;10.63;44.00
77572;BME280;67214;47.454;18.966;2024-02-14T12:33:32;100880.02;;;10.40;44.39
77572;BME280;67214;47.454;18.966;2024-02-14T12:36:00;100871.61;;;10.65;44.27
77572;BME280;67214;47.454;18.966;2024-02-14T12:38:28;100881.74;;;10.53;44.44
77572;BME280;67214;47.454;18.966;2024-02-14T12:40:55;100864.19;;;10.70;44.97
77572;BME280;67214;47.454;18.966;2024-02-14T12:43:22;100866.47;;;10.69;44.95
77572;BME280;67214;47.454;18.966;2024-02-14T12:45:49;100865.73;;;10.42;45.55
77572;BME280;67214;47.454;18.966;2024-02-14T12:48:22;100863.17;;;10.53;45.92